createdAt,value
2019-03-04T00:01:50.027Z,9.16
2019-03-04T00:04:18.294Z,9.17
2019-03-04T00:06:46.558Z,9.15
2019-03-04T00:09:14.803Z,9.14
2019-03-04T00:11:43.060Z,9.06
2019-03-04T00:14:11.322Z,9.07
2019-03-04T00:16:39.666Z,9.09
2019-03-04T00:19:07.923Z,9.11
2019-03-04T00:21:36.188Z,9.10
2019-03-04T00:24:05.203Z,9.08
2019-03-04T00:26:33.566Z,9.09
2019-03-04T00:29:01.947Z,9.09
2019-03-04T00:31:30.256Z,9.07
2019-03-04T00:33:59.814Z,9.08
2019-03-04T00:36:28.162Z,9.08
2019-03-04T00:38:57.450Z,9.09
2019-03-04T00:41:25.855Z,9.08
2019-03-04T00:43:54.100Z,9.08
2019-03-04T00:46:22.501Z,9.05
2019-03-04T00:48:50.870Z,9.03
2019-03-04T00:51:19.171Z,9.01
2019-03-04T00:53:47.545Z,8.99
2019-03-04T00:56:20.524Z,8.94
2019-03-04T00:58:48.797Z,8.89
2019-03-04T01:01:17.250Z,8.85
2019-03-04T01:03:45.640Z,8.79
2019-03-04T01:06:14.003Z,8.81
2019-03-04T01:08:42.529Z,8.82
2019-03-04T01:11:10.868Z,8.84
2019-03-04T01:13:40.884Z,8.84
2019-03-04T01:16:09.341Z,8.85
2019-03-04T01:18:39.444Z,8.79
2019-03-04T01:21:07.865Z,8.76
2019-03-04T01:23:36.120Z,8.81
2019-03-04T01:26:04.473Z,8.82
2019-03-04T01:28:32.860Z,8.82
2019-03-04T01:31:01.138Z,8.82
2019-03-04T01:33:29.520Z,8.82
2019-03-04T01:35:57.879Z,8.78
2019-03-04T01:38:26.181Z,8.74
2019-03-04T01:40:54.495Z,8.72
2019-03-04T01:43:22.790Z,8.78
2019-03-04T01:45:51.154Z,8.73
2019-03-04T01:48:19.572Z,8.66
2019-03-04T01:50:47.926Z,8.64
2019-03-04T01:53:16.201Z,8.63
2019-03-04T01:55:44.547Z,8.63
2019-03-04T01:58:18.868Z,8.60
2019-03-04T02:00:47.345Z,8.54
2019-03-04T02:03:17.351Z,8.46
2019-03-04T02:05:47.301Z,8.35
2019-03-04T02:08:15.670Z,8.29
2019-03-04T02:10:44.043Z,8.21
2019-03-04T02:13:12.434Z,8.16
2019-03-04T02:15:42.858Z,8.15
2019-03-04T02:18:15.590Z,8.08
2019-03-04T02:20:52.951Z,8.08
2019-03-04T02:23:21.279Z,8.13
2019-03-04T02:26:04.731Z,8.17
2019-03-04T02:28:33.031Z,8.19
2019-03-04T02:31:01.302Z,8.23
2019-03-04T02:33:29.659Z,8.24
2019-03-04T02:35:58.023Z,8.30
2019-03-04T02:38:26.343Z,8.35
2019-03-04T02:40:54.644Z,8.39
2019-03-04T02:43:22.961Z,8.43
2019-03-04T02:45:51.385Z,8.44
2019-03-04T02:48:19.720Z,8.45
2019-03-04T02:50:47.982Z,8.47
2019-03-04T02:53:18.937Z,8.51
2019-03-04T02:55:47.366Z,8.51
2019-03-04T02:58:15.673Z,8.50
2019-03-04T03:00:47.122Z,8.46
2019-03-04T03:03:15.450Z,8.46
2019-03-04T03:05:43.810Z,8.48
2019-03-04T03:08:12.316Z,8.48
2019-03-04T03:10:40.644Z,8.48
2019-03-04T03:13:09.001Z,8.44
2019-03-04T03:15:38.357Z,8.44
2019-03-04T03:18:06.713Z,8.42
2019-03-04T03:20:35.075Z,8.41
2019-03-04T03:23:05.037Z,8.37
2019-03-04T03:25:33.369Z,8.32
2019-03-04T03:28:04.748Z,8.28
2019-03-04T03:30:37.191Z,0.60
2019-03-04T03:33:05.654Z,8.24
2019-03-04T03:35:36.934Z,8.22
2019-03-04T03:38:05.338Z,8.20
2019-03-04T03:40:33.718Z,8.18
2019-03-04T03:43:02.064Z,8.18
2019-03-04T03:45:30.527Z,8.19
2019-03-04T03:47:58.923Z,8.18
2019-03-04T03:50:28.859Z,8.20
2019-03-04T03:52:57.138Z,8.17
2019-03-04T03:55:25.501Z,8.13
2019-03-04T03:57:54.060Z,8.12
2019-03-04T04:00:23.494Z,8.04
2019-03-04T04:02:53.628Z,7.95
2019-03-04T04:05:22.071Z,7.82
2019-03-04T04:07:50.647Z,7.69
2019-03-04T04:10:19.769Z,7.65
2019-03-04T04:12:51.238Z,7.53
2019-03-04T04:15:20.145Z,7.44
2019-03-04T04:17:48.646Z,7.38
2019-03-04T04:20:17.082Z,7.34
2019-03-04T04:22:45.426Z,7.38
2019-03-04T04:25:16.457Z,7.41
2019-03-04T04:27:44.855Z,7.41
2019-03-04T04:30:30.167Z,7.38
2019-03-04T04:33:00.149Z,7.35
2019-03-04T04:35:28.493Z,7.34
2019-03-04T04:37:56.876Z,7.33
2019-03-04T04:40:29.528Z,7.32
2019-03-04T04:42:57.948Z,7.31
2019-03-04T04:45:26.231Z,7.29
2019-03-04T04:47:54.479Z,7.27
2019-03-04T04:50:28.181Z,7.22
2019-03-04T04:52:56.531Z,7.17
2019-03-04T04:55:26.516Z,7.15
2019-03-04T04:57:59.286Z,7.13
2019-03-04T05:00:27.703Z,7.12
2019-03-04T05:02:57.671Z,7.12
2019-03-04T05:05:26.051Z,7.11
2019-03-04T05:07:54.317Z,7.10
2019-03-04T05:10:24.415Z,7.01
2019-03-04T05:12:52.683Z,6.83
2019-03-04T05:15:20.983Z,6.83
2019-03-04T05:17:49.303Z,6.85
2019-03-04T05:20:23.316Z,6.86
2019-03-04T05:22:51.583Z,6.86
2019-03-04T05:25:19.838Z,6.83
2019-03-04T05:27:48.092Z,6.77
2019-03-04T05:30:18.398Z,6.71
2019-03-04T05:32:46.726Z,6.68
2019-03-04T05:35:15.012Z,6.65
2019-03-04T05:37:43.422Z,6.61
2019-03-04T05:40:14.638Z,6.49
2019-03-04T05:42:43.086Z,6.40
2019-03-04T05:45:15.923Z,4.10
2019-03-04T05:47:44.213Z,6.22
2019-03-04T05:50:15.002Z,6.13
2019-03-04T05:52:43.337Z,6.04
2019-03-04T05:55:13.787Z,5.98
2019-03-04T05:57:42.033Z,6.00
2019-03-04T06:00:22.850Z,6.02
2019-03-04T06:02:54.529Z,6.02
2019-03-04T06:05:22.783Z,5.85
2019-03-04T06:07:52.674Z,5.90
2019-03-04T06:10:21.046Z,5.91
2019-03-04T06:12:49.413Z,5.92
2019-03-04T06:15:19.647Z,5.91
2019-03-04T06:17:47.972Z,5.83
2019-03-04T06:20:18.265Z,5.88
2019-03-04T06:22:46.528Z,5.95
2019-03-04T06:25:18.261Z,6.05
2019-03-04T06:27:46.515Z,6.11
2019-03-04T06:30:25.537Z,6.15
2019-03-04T06:32:53.860Z,6.20
2019-03-04T06:35:22.140Z,6.22
2019-03-04T06:37:50.404Z,6.26
2019-03-04T06:40:19.831Z,6.28
2019-03-04T06:42:48.098Z,6.30
2019-03-04T06:45:17.561Z,6.30
2019-03-04T06:47:45.810Z,6.26
2019-03-04T06:50:46.194Z,6.24
2019-03-04T06:53:20.269Z,6.24
2019-03-04T06:55:57.342Z,6.23
2019-03-04T06:58:25.594Z,6.28
2019-03-04T07:00:55.301Z,6.34
2019-03-04T07:03:23.648Z,6.40
2019-03-04T07:05:52.060Z,6.47
2019-03-04T07:08:35.658Z,6.54
2019-03-04T07:11:04.014Z,6.65
2019-03-04T07:13:32.322Z,6.70
2019-03-04T07:16:00.598Z,6.82
2019-03-04T07:18:28.896Z,6.89
2019-03-04T07:20:57.243Z,6.99
2019-03-04T07:23:25.508Z,7.11
2019-03-04T07:25:53.859Z,7.24
2019-03-04T07:28:22.258Z,7.35
2019-03-04T07:30:50.632Z,7.50
2019-03-04T07:33:18.987Z,7.64
2019-03-04T07:35:49.861Z,7.75
2019-03-04T07:38:24.414Z,7.89
2019-03-04T07:40:52.886Z,8.05
2019-03-04T07:43:21.340Z,8.20
2019-03-04T07:45:49.744Z,8.34
2019-03-04T07:48:18.037Z,8.47
2019-03-04T07:50:46.415Z,8.61
2019-03-04T07:53:14.670Z,8.72
2019-03-04T07:55:43.074Z,8.82
2019-03-04T07:58:11.396Z,8.90
2019-03-04T08:00:39.699Z,8.97
2019-03-04T08:03:07.972Z,9.06
2019-03-04T08:05:36.234Z,9.17
2019-03-04T08:08:07.481Z,9.33
2019-03-04T08:10:48.095Z,9.47
2019-03-04T08:13:28.658Z,9.64
2019-03-04T08:15:57.053Z,9.89
2019-03-04T08:18:25.329Z,10.14
2019-03-04T08:20:53.592Z,10.39
2019-03-04T08:23:21.958Z,10.67
2019-03-04T08:25:50.233Z,10.95
2019-03-04T08:28:18.506Z,11.26
2019-03-04T08:30:46.821Z,11.62
2019-03-04T08:33:15.154Z,12.02
2019-03-04T08:35:43.479Z,12.40
2019-03-04T08:38:11.746Z,12.70
2019-03-04T08:40:39.986Z,13.02
2019-03-04T08:43:08.339Z,13.35
2019-03-04T08:45:36.548Z,13.64
2019-03-04T08:48:04.895Z,13.88
2019-03-04T08:50:33.162Z,14.05
2019-03-04T08:53:01.560Z,14.14
2019-03-04T08:55:29.859Z,14.13
2019-03-04T08:57:58.257Z,14.10
2019-03-04T09:00:31.035Z,14.27
2019-03-04T09:02:59.322Z,14.50
2019-03-04T09:05:27.594Z,14.79
2019-03-04T09:07:55.882Z,15.06
2019-03-04T09:10:29.785Z,15.27
2019-03-04T09:12:58.050Z,15.43
2019-03-04T09:15:26.390Z,15.43
2019-03-04T09:17:54.747Z,15.42
2019-03-04T09:20:23.140Z,15.40
2019-03-04T09:22:51.389Z,15.35
2019-03-04T09:25:30.356Z,15.20
2019-03-04T09:27:57.302Z,14.90
2019-03-04T09:30:25.558Z,14.85
2019-03-04T09:32:53.804Z,14.85
2019-03-04T09:35:22.182Z,14.77
2019-03-04T09:37:50.469Z,14.65
2019-03-04T09:40:27.856Z,14.44
2019-03-04T09:42:56.120Z,14.42
2019-03-04T09:45:24.377Z,14.38
2019-03-04T09:47:52.629Z,14.37
2019-03-04T09:50:25.088Z,14.30
2019-03-04T09:52:53.339Z,14.26
2019-03-04T09:55:21.659Z,14.23
2019-03-04T09:57:49.981Z,14.05
2019-03-04T10:00:48.672Z,13.89
2019-03-04T10:03:41.125Z,13.75
2019-03-04T10:06:42.803Z,13.71
2019-03-04T10:09:31.001Z,13.66
2019-03-04T10:12:20.629Z,13.60
2019-03-04T10:15:08.312Z,13.59
2019-03-04T10:17:52.365Z,13.58
2019-03-04T10:20:56.684Z,13.61
2019-03-04T10:23:48.574Z,13.63
2019-03-04T10:26:28.477Z,13.60
2019-03-04T10:29:03.039Z,13.60
2019-03-04T10:31:40.293Z,13.59
2019-03-04T10:34:28.340Z,13.59
2019-03-04T10:37:20.700Z,13.57
2019-03-04T10:40:04.038Z,13.57
2019-03-04T10:42:53.818Z,13.54
2019-03-04T10:45:49.653Z,13.53
2019-03-04T10:48:17.905Z,13.53
2019-03-04T10:50:46.196Z,13.55
2019-03-04T10:53:14.447Z,13.58
2019-03-04T10:55:42.731Z,13.56
2019-03-04T10:58:10.954Z,13.55
2019-03-04T11:00:39.383Z,13.57
2019-03-04T11:03:07.649Z,13.54
2019-03-04T11:05:35.916Z,13.55
2019-03-04T11:08:04.159Z,13.49
2019-03-04T11:10:32.439Z,13.36
2019-03-04T11:13:02.763Z,13.18
2019-03-04T11:15:31.111Z,13.04
2019-03-04T11:17:59.506Z,10.73
2019-03-04T11:20:27.764Z,12.93
2019-03-04T11:22:56.130Z,12.88
2019-03-04T11:25:24.582Z,12.85
2019-03-04T11:27:53.163Z,12.84
2019-03-04T11:30:29.646Z,12.76
2019-03-04T11:32:58.060Z,12.68
2019-03-04T11:35:29.342Z,12.57
2019-03-04T11:37:57.778Z,12.47
2019-03-04T11:40:38.873Z,12.42
2019-03-04T11:43:07.475Z,12.43
2019-03-04T11:45:35.874Z,12.46
2019-03-04T11:48:04.196Z,12.47
2019-03-04T11:50:32.530Z,12.43
2019-03-04T11:53:00.789Z,12.40
2019-03-04T11:55:31.734Z,12.36
2019-03-04T11:58:00.196Z,12.29
2019-03-04T12:00:30.812Z,12.29
2019-03-04T12:02:59.187Z,12.24
2019-03-04T12:05:27.531Z,12.21
2019-03-04T12:07:55.964Z,12.23
2019-03-04T12:10:24.374Z,12.11
2019-03-04T12:12:52.870Z,12.09
2019-03-04T12:15:21.554Z,12.08
2019-03-04T12:17:49.852Z,12.04
2019-03-04T12:20:18.662Z,11.98
2019-03-04T12:22:47.127Z,11.91
2019-03-04T12:25:20.078Z,11.85
2019-03-04T12:27:48.498Z,11.78
2019-03-04T12:30:22.476Z,11.70
2019-03-04T12:32:51.899Z,11.67
2019-03-04T12:35:21.048Z,11.65
2019-03-04T12:37:49.769Z,11.62
2019-03-04T12:40:24.310Z,11.56
2019-03-04T12:42:52.676Z,11.53
2019-03-04T12:45:33.720Z,11.51
2019-03-04T12:47:53.588Z,11.46
2019-03-04T12:50:30.172Z,11.41
2019-03-04T12:52:59.043Z,7.70
2019-03-04T12:55:27.350Z,11.32
2019-03-04T12:57:55.845Z,11.27
2019-03-04T13:00:32.228Z,11.28
2019-03-04T13:03:00.635Z,11.23
2019-03-04T13:05:29.114Z,11.21
2019-03-04T13:07:57.579Z,11.15
2019-03-04T13:10:27.604Z,11.15
2019-03-04T13:12:56.116Z,11.15
2019-03-04T13:15:32.159Z,11.10
2019-03-04T13:18:06.267Z,11.08
2019-03-04T13:20:34.749Z,11.03
2019-03-04T13:23:03.299Z,11.01
2019-03-04T13:25:31.885Z,10.98
2019-03-04T13:28:07.785Z,10.95
2019-03-04T13:30:38.381Z,10.85
2019-03-04T13:33:06.660Z,10.84
2019-03-04T13:35:39.496Z,10.80
2019-03-04T13:38:07.990Z,10.78
2019-03-04T13:40:36.556Z,10.71
2019-03-04T13:43:05.097Z,10.69
2019-03-04T13:45:33.554Z,10.68
2019-03-04T13:48:02.067Z,10.60
2019-03-04T13:50:31.195Z,10.60
2019-03-04T13:52:59.733Z,10.55
2019-03-04T13:55:29.843Z,10.49
2019-03-04T13:57:58.335Z,10.47
2019-03-04T14:00:37.599Z,10.44
2019-03-04T14:03:06.249Z,10.44
2019-03-04T14:05:34.507Z,10.43
2019-03-04T14:08:02.851Z,10.37
2019-03-04T14:10:36.729Z,10.38
2019-03-04T14:13:05.082Z,10.35
2019-03-04T14:15:42.619Z,10.36
2019-03-04T14:18:12.514Z,10.33
2019-03-04T14:20:40.850Z,10.32
2019-03-04T14:23:09.107Z,10.30
2019-03-04T14:25:37.372Z,10.29
2019-03-04T14:28:05.750Z,10.30
2019-03-04T14:30:34.103Z,10.28
2019-03-04T14:33:02.334Z,10.28
2019-03-04T14:35:30.577Z,10.29
2019-03-04T14:37:58.882Z,10.24
2019-03-04T14:40:27.179Z,10.22
2019-03-04T14:42:57.080Z,10.22
2019-03-04T14:45:26.187Z,10.21
2019-03-04T14:47:56.253Z,10.20
2019-03-04T14:50:24.774Z,10.18
2019-03-04T14:52:53.161Z,10.19
2019-03-04T14:55:26.080Z,10.14
2019-03-04T14:57:54.638Z,10.08
2019-03-04T15:00:32.028Z,10.06
2019-03-04T15:03:00.490Z,10.03
2019-03-04T15:05:28.796Z,10.01
2019-03-04T15:07:57.258Z,10.00
2019-03-04T15:10:25.576Z,9.94
2019-03-04T15:12:53.848Z,9.93
2019-03-04T15:15:27.155Z,9.92
2019-03-04T15:17:55.553Z,9.90
2019-03-04T15:20:25.335Z,9.89
2019-03-04T15:22:53.594Z,9.87
2019-03-04T15:25:27.320Z,9.85
2019-03-04T15:27:58.826Z,9.81
2019-03-04T15:30:27.566Z,9.79
2019-03-04T15:32:55.802Z,9.80
2019-03-04T15:35:24.197Z,9.79
2019-03-04T15:37:52.706Z,9.75
2019-03-04T15:40:21.161Z,9.76
2019-03-04T15:42:49.501Z,9.73
2019-03-04T15:45:18.026Z,9.79
2019-03-04T15:47:46.927Z,9.84
2019-03-04T15:50:15.361Z,9.97
2019-03-04T15:52:45.306Z,10.11
2019-03-04T15:55:14.790Z,10.22
2019-03-04T15:57:43.143Z,10.26
2019-03-04T16:00:13.795Z,10.29
2019-03-04T16:02:42.221Z,10.32
2019-03-04T16:05:15.357Z,10.32
2019-03-04T16:07:45.446Z,10.34
2019-03-04T16:10:29.711Z,10.37
2019-03-04T16:12:59.714Z,10.40
2019-03-04T16:15:27.959Z,10.38
2019-03-04T16:17:56.217Z,10.34
2019-03-04T16:20:24.475Z,10.30
2019-03-04T16:22:55.924Z,10.24
2019-03-04T16:25:24.188Z,10.18
2019-03-04T16:27:58.205Z,10.14
2019-03-04T16:30:26.480Z,10.14
2019-03-04T16:32:54.729Z,10.13
2019-03-04T16:35:22.973Z,10.06
2019-03-04T16:37:51.232Z,10.04
2019-03-04T16:40:20.823Z,10.05
2019-03-04T16:42:49.098Z,9.98
2019-03-04T16:45:21.467Z,9.91
2019-03-04T16:47:49.880Z,9.89
2019-03-04T16:50:20.376Z,9.86
2019-03-04T16:52:55.076Z,9.87
2019-03-04T16:55:23.317Z,9.81
2019-03-04T16:57:51.588Z,9.76
2019-03-04T17:00:20.875Z,9.73
2019-03-04T17:02:49.516Z,9.74
2019-03-04T17:05:18.839Z,9.70
2019-03-04T17:07:47.770Z,9.68
2019-03-04T17:10:18.699Z,9.63
2019-03-04T17:12:46.945Z,9.64
2019-03-04T17:15:23.302Z,9.61
2019-03-04T17:17:51.631Z,9.65
2019-03-04T17:20:20.020Z,9.74
2019-03-04T17:22:48.272Z,9.72
2019-03-04T17:25:23.180Z,9.78
2019-03-04T17:27:51.547Z,9.87
2019-03-04T17:30:21.058Z,9.91
2019-03-04T17:32:49.451Z,9.91
2019-03-04T17:35:22.823Z,9.91
2019-03-04T17:37:51.138Z,9.89
2019-03-04T17:40:26.436Z,9.92
2019-03-04T17:42:54.683Z,9.94
2019-03-04T17:45:24.623Z,9.92
2019-03-04T17:47:52.896Z,9.91
2019-03-04T17:50:24.405Z,9.92
2019-03-04T17:52:52.664Z,9.94
2019-03-04T17:55:20.907Z,9.99
2019-03-04T17:57:49.156Z,10.07
2019-03-04T18:00:18.648Z,10.11
2019-03-04T18:02:46.902Z,9.98
2019-03-04T18:05:15.219Z,9.82
2019-03-04T18:07:43.467Z,9.55
2019-03-04T18:10:17.813Z,9.24
2019-03-04T18:12:46.233Z,8.96
2019-03-04T18:15:32.202Z,8.76
2019-03-04T18:18:00.455Z,8.60
2019-03-04T18:20:34.554Z,8.42
2019-03-04T18:22:58.704Z,8.37
2019-03-04T18:25:38.869Z,8.30
2019-03-04T18:28:16.155Z,8.18
2019-03-04T18:30:53.338Z,8.13
2019-03-04T18:33:41.356Z,7.99
2019-03-04T18:36:21.201Z,7.99
2019-03-04T18:38:58.802Z,7.84
2019-03-04T18:41:51.123Z,7.85
2019-03-04T18:44:28.412Z,7.74
2019-03-04T18:47:15.098Z,7.67
2019-03-04T18:49:43.373Z,7.67
2019-03-04T18:52:11.634Z,7.62
2019-03-04T18:54:39.880Z,7.58
2019-03-04T18:57:08.139Z,7.43
2019-03-04T18:59:36.390Z,7.36
2019-03-04T19:02:04.669Z,7.31
2019-03-04T19:04:32.932Z,7.21
2019-03-04T19:07:01.196Z,7.14
2019-03-04T19:09:29.471Z,7.07
2019-03-04T19:11:57.739Z,7.01
2019-03-04T19:14:25.971Z,7.02
2019-03-04T19:16:54.243Z,6.98
2019-03-04T19:19:22.498Z,6.94
2019-03-04T19:21:50.745Z,6.94
2019-03-04T19:24:18.995Z,6.91
2019-03-04T19:26:47.301Z,6.95
2019-03-04T19:29:15.573Z,6.98
2019-03-04T19:31:43.854Z,6.99
2019-03-04T19:34:12.102Z,6.98
2019-03-04T19:36:40.368Z,6.99
2019-03-04T19:39:08.740Z,6.94
2019-03-04T19:41:37.317Z,6.91
2019-03-04T19:44:05.868Z,6.84
2019-03-04T19:46:37.173Z,6.80
2019-03-04T19:49:05.746Z,6.68
2019-03-04T19:51:34.050Z,6.68
2019-03-04T19:54:02.360Z,6.64
2019-03-04T19:56:30.651Z,6.59
2019-03-04T19:58:58.910Z,6.54
2019-03-04T20:01:27.153Z,6.55
2019-03-04T20:03:55.446Z,6.52
2019-03-04T20:06:23.730Z,6.51
2019-03-04T20:08:52.044Z,6.53
2019-03-04T20:11:20.298Z,6.45
2019-03-04T20:13:48.551Z,6.44
2019-03-04T20:16:16.835Z,6.41
2019-03-04T20:18:45.109Z,6.42
2019-03-04T20:21:13.381Z,6.43
2019-03-04T20:23:41.649Z,6.40
2019-03-04T20:26:13.443Z,6.35
2019-03-04T20:28:41.791Z,6.33
2019-03-04T20:31:10.078Z,6.27
2019-03-04T20:33:38.355Z,6.26
2019-03-04T20:36:06.612Z,6.25
2019-03-04T20:38:41.708Z,6.23
2019-03-04T20:41:09.967Z,6.20
2019-03-04T20:43:38.246Z,6.18
2019-03-04T20:46:06.839Z,6.16
2019-03-04T20:48:35.079Z,6.15
2019-03-04T20:51:03.368Z,6.15
2019-03-04T20:53:31.641Z,6.19
2019-03-04T20:56:00.682Z,6.18
2019-03-04T20:58:29.010Z,6.20
2019-03-04T21:00:57.279Z,6.26
2019-03-04T21:03:34.578Z,6.23
2019-03-04T21:05:56.731Z,6.18
2019-03-04T21:08:25.059Z,6.15
2019-03-04T21:10:53.383Z,6.12
2019-03-04T21:13:35.085Z,6.10
2019-03-04T21:15:55.727Z,6.07
2019-03-04T21:18:23.996Z,6.11
2019-03-04T21:20:52.338Z,6.10
2019-03-04T21:23:20.585Z,6.08
2019-03-04T21:25:58.171Z,6.11
2019-03-04T21:29:02.701Z,6.08
2019-03-04T21:31:50.691Z,6.04
2019-03-04T21:34:31.311Z,6.07
2019-03-04T21:37:05.750Z,6.09
2019-03-04T21:39:42.796Z,6.08
2019-03-04T21:42:23.767Z,6.08
2019-03-04T21:45:04.303Z,6.05
2019-03-04T21:47:35.853Z,6.01
2019-03-04T21:50:06.913Z,6.01
2019-03-04T21:52:41.236Z,6.02
2019-03-04T21:55:12.753Z,6.03
2019-03-04T21:57:44.212Z,6.04
2019-03-04T22:00:15.858Z,6.03
2019-03-04T22:02:49.998Z,5.98
2019-03-04T22:05:18.925Z,5.99
2019-03-04T22:07:48.767Z,5.93
2019-03-04T22:10:17.108Z,5.92
2019-03-04T22:12:45.952Z,5.90
2019-03-04T22:15:14.394Z,5.93
2019-03-04T22:17:42.665Z,5.92
2019-03-04T22:20:14.093Z,5.89
2019-03-04T22:22:42.396Z,5.93
2019-03-04T22:25:14.279Z,5.91
2019-03-04T22:27:42.492Z,5.91
2019-03-04T22:30:16.892Z,5.85
2019-03-04T22:32:45.141Z,5.82
2019-03-04T22:35:17.158Z,5.74
2019-03-04T22:37:45.289Z,5.72
2019-03-04T22:40:29.275Z,5.68
2019-03-04T22:42:57.519Z,5.61
2019-03-04T22:45:25.793Z,5.60
2019-03-04T22:47:54.058Z,5.60
2019-03-04T22:50:22.879Z,5.58
2019-03-04T22:52:51.155Z,5.57
2019-03-04T22:55:31.400Z,5.58
2019-03-04T22:57:59.702Z,5.61
2019-03-04T23:00:53.991Z,5.59
2019-03-04T23:03:24.545Z,5.57
2019-03-04T23:06:02.044Z,5.57
2019-03-04T23:08:30.339Z,5.60
2019-03-04T23:10:58.596Z,5.57
2019-03-04T23:13:36.005Z,5.55
2019-03-04T23:16:04.904Z,5.57
2019-03-04T23:18:33.512Z,5.56
2019-03-04T23:21:01.739Z,5.57
2019-03-04T23:23:30.020Z,5.57
2019-03-04T23:25:58.276Z,5.59
2019-03-04T23:28:26.520Z,5.60
2019-03-04T23:30:54.791Z,5.63
2019-03-04T23:33:24.670Z,5.62
2019-03-04T23:35:52.949Z,5.62
2019-03-04T23:38:21.193Z,5.65
2019-03-04T23:40:49.554Z,5.68
2019-03-04T23:43:17.880Z,5.66
2019-03-04T23:45:46.176Z,5.68
2019-03-04T23:48:14.435Z,5.71
2019-03-04T23:50:42.678Z,5.68
2019-03-04T23:53:10.933Z,5.69
2019-03-04T23:55:39.220Z,5.70
2019-03-04T23:58:07.475Z,5.70
